Overview Statistics Trail Chart Weather Telemetry Raw packets
 

This is the latest recevied weather packets stored in our database for station/object W8KJR. If no packets are shown the sender has not sent any weather packets the latest 10 day(s).

<< 8 9 10 11 12 13 >>
Time Temp. Humidity Pressure Rain* Wind** Luminosity Snow
1777812276 8.33° C 62% 1016 hPa 0 mm - - -
1777811374 7.78° C 62% 1016 hPa 0 mm - - -
1777810471 7.22° C 63% 1016.1 hPa 0 mm - - -
1777809567 6.67° C 65% 1016.1 hPa 0 mm - - -
1777808666 5.56° C 66% 1016 hPa 0 mm - - -
1777807764 3.33° C 76% 1015.7 hPa 0 mm - - -
1777806861 2.78° C 80% 1015.8 hPa 0 mm - - -
1777805955 1.67° C 84% 1015.6 hPa 0 mm - - -
1777805054 1.11° C 86% 1015.6 hPa 0 mm - - -
1777804151 1.11° C 87% 1015.7 hPa 0 mm - - -
1777803247 1.11° C 88% 1015.7 hPa 0 mm - - -
1777802345 1.11° C 87% 1015.6 hPa 0 mm - - -
1777801443 0.56° C 88% 1015.7 hPa 0 mm - - -
1777800542 0.56° C 91% 1015.8 hPa 0 mm - - -
1777799638 0.56° C 91% 1015.5 hPa 0 mm - - -
1777798737 0.56° C 91% 1015.7 hPa 0 mm - - -
1777797835 0.56° C 89% 1015.8 hPa 0 mm - - -
1777796932 0.56° C 90% 1015.7 hPa 0 mm - - -
1777796026 0.56° C 90% 1015.8 hPa 0 mm - - -
1777795122 0.56° C 89% 1015.8 hPa 0 mm - - -
1777794222 0.56° C 88% 1015.9 hPa 0 mm - - -
1777793320 0.56° C 89% 1015.9 hPa 0 mm - - -
1777792417 1.11° C 88% 1016 hPa 0 mm - - -
1777791515 1.11° C 90% 1016 hPa 0 mm - - -
1777790613 1.11° C 90% 1016 hPa 0 mm - - -

* Rain latest hour (hover to see other rain measurements)
** Current wind speed in m/s (hover to see current wind gust speed)